createdAt,value
2023-06-07T00:02:08.011Z,13.00
2023-06-07T00:04:36.766Z,12.99
2023-06-07T00:07:04.122Z,12.98
2023-06-07T00:09:31.445Z,12.96
2023-06-07T00:11:58.453Z,12.95
2023-06-07T00:14:25.700Z,12.93
2023-06-07T00:16:54.378Z,12.93
2023-06-07T00:19:26.459Z,12.91
2023-06-07T00:21:53.661Z,12.88
2023-06-07T00:24:21.175Z,12.89
2023-06-07T00:26:48.140Z,12.87
2023-06-07T00:29:15.579Z,12.87
2023-06-07T00:31:42.544Z,12.84
2023-06-07T00:34:09.941Z,12.83
2023-06-07T00:36:38.249Z,12.81
2023-06-07T00:39:05.309Z,12.79
2023-06-07T00:41:32.310Z,12.77
2023-06-07T00:43:59.797Z,12.76
2023-06-07T00:46:28.726Z,12.74
2023-06-07T00:48:57.097Z,12.70
2023-06-07T00:51:24.241Z,12.69
2023-06-07T00:53:52.761Z,12.66
2023-06-07T00:56:20.521Z,12.67
2023-06-07T00:58:48.123Z,12.66
2023-06-07T01:01:19.143Z,12.66
2023-06-07T01:03:46.281Z,12.65
2023-06-07T01:06:14.993Z,12.66
2023-06-07T01:08:42.864Z,12.65
2023-06-07T01:11:11.656Z,12.65
2023-06-07T01:13:40.031Z,12.65
2023-06-07T01:16:09.480Z,12.65
2023-06-07T01:18:39.032Z,12.65
2023-06-07T01:21:06.515Z,12.66
2023-06-07T01:23:33.993Z,12.65
2023-06-07T01:26:01.811Z,12.67
2023-06-07T01:28:32.188Z,12.66
2023-06-07T01:31:00.868Z,12.68
2023-06-07T01:33:33.517Z,12.68
2023-06-07T01:36:02.757Z,12.69
2023-06-07T01:38:31.393Z,12.70
2023-06-07T01:40:59.107Z,12.71
2023-06-07T01:43:27.205Z,12.74
2023-06-07T01:45:54.481Z,12.76
2023-06-07T01:48:21.969Z,12.77
2023-06-07T01:50:49.023Z,12.78
2023-06-07T01:53:16.419Z,12.81
2023-06-07T01:55:43.601Z,12.82
2023-06-07T01:58:21.319Z,12.85
2023-06-07T02:00:57.492Z,12.86
2023-06-07T02:03:30.237Z,12.88
2023-06-07T02:06:00.852Z,12.91
2023-06-07T02:08:30.870Z,12.93
2023-06-07T02:10:58.807Z,12.96
2023-06-07T02:13:27.974Z,12.99
2023-06-07T02:15:55.122Z,13.01
2023-06-07T02:18:22.142Z,13.02
2023-06-07T02:20:53.357Z,13.06
2023-06-07T02:23:20.763Z,13.09
2023-06-07T02:25:47.711Z,13.11
2023-06-07T02:28:17.424Z,13.14
2023-06-07T02:30:45.493Z,13.19
2023-06-07T02:33:15.083Z,13.22
2023-06-07T02:35:45.015Z,13.25
2023-06-07T02:38:11.867Z,13.30
2023-06-07T02:40:39.032Z,13.35
2023-06-07T02:43:05.918Z,13.39
2023-06-07T02:45:32.833Z,13.45
2023-06-07T02:47:59.798Z,13.49
2023-06-07T02:50:27.719Z,13.53
2023-06-07T02:52:56.583Z,13.57
2023-06-07T02:55:23.544Z,13.60
2023-06-07T02:57:50.425Z,13.62
2023-06-07T03:00:20.195Z,13.66
2023-06-07T03:02:52.898Z,13.70
2023-06-07T03:05:20.013Z,13.75
2023-06-07T03:07:52.282Z,13.80
2023-06-07T03:10:20.183Z,13.83
2023-06-07T03:12:47.549Z,13.89
2023-06-07T03:15:14.356Z,13.95
2023-06-07T03:17:44.565Z,14.00
2023-06-07T03:20:12.896Z,14.05
2023-06-07T03:22:41.925Z,14.10
2023-06-07T03:25:12.374Z,14.16
2023-06-07T03:27:39.562Z,14.21
2023-06-07T03:30:20.766Z,14.27
2023-06-07T03:32:48.976Z,14.36
2023-06-07T03:35:16.827Z,14.45
2023-06-07T03:37:44.173Z,14.54
2023-06-07T03:40:11.778Z,14.62
2023-06-07T03:42:38.845Z,14.70
2023-06-07T03:45:07.062Z,14.77
2023-06-07T03:47:34.789Z,14.83
2023-06-07T03:50:02.612Z,14.94
2023-06-07T03:52:33.846Z,15.02
2023-06-07T03:55:00.987Z,15.11
2023-06-07T03:57:29.481Z,15.22
2023-06-07T03:59:57.708Z,15.30
2023-06-07T04:02:25.043Z,15.39
2023-06-07T04:04:53.976Z,15.45
2023-06-07T04:07:21.524Z,15.53
2023-06-07T04:09:49.695Z,15.59
2023-06-07T04:12:18.649Z,15.65
2023-06-07T04:14:48.071Z,15.71
2023-06-07T04:17:15.008Z,15.79
2023-06-07T04:19:50.880Z,15.86
2023-06-07T04:22:31.785Z,15.96
2023-06-07T04:24:59.156Z,16.05
2023-06-07T04:27:31.026Z,16.15
2023-06-07T04:30:04.106Z,16.24
2023-06-07T04:32:34.811Z,16.30
2023-06-07T04:35:03.940Z,16.37
2023-06-07T04:37:32.507Z,16.46
2023-06-07T04:39:59.951Z,16.55
2023-06-07T04:42:28.659Z,16.64
2023-06-07T04:45:01.678Z,16.77
2023-06-07T04:47:31.230Z,16.89
2023-06-07T04:49:58.186Z,16.97
2023-06-07T04:52:28.304Z,17.07
2023-06-07T04:55:01.215Z,17.15
2023-06-07T04:57:31.237Z,17.26
2023-06-07T04:59:59.717Z,17.39
2023-06-07T05:02:40.429Z,17.48
2023-06-07T05:05:07.798Z,17.55
2023-06-07T05:07:38.156Z,17.63
2023-06-07T05:10:07.964Z,17.75
2023-06-07T05:12:35.399Z,17.86
2023-06-07T05:15:02.591Z,17.95
2023-06-07T05:17:30.867Z,18.02
2023-06-07T05:19:57.782Z,18.08
2023-06-07T05:22:24.904Z,18.14
2023-06-07T05:24:52.554Z,18.20
2023-06-07T05:27:19.474Z,18.27
2023-06-07T05:29:46.438Z,18.34
2023-06-07T05:32:13.982Z,18.39
2023-06-07T05:34:40.899Z,18.46
2023-06-07T05:37:08.223Z,18.53
2023-06-07T05:39:35.378Z,18.58
2023-06-07T05:42:02.136Z,18.66
2023-06-07T05:44:29.222Z,18.72
2023-06-07T05:46:56.585Z,18.76
2023-06-07T05:49:23.559Z,18.82
2023-06-07T05:51:50.677Z,18.91
2023-06-07T05:54:17.601Z,19.00
2023-06-07T05:56:44.466Z,19.10
2023-06-07T05:59:11.456Z,19.21
2023-06-07T06:01:38.458Z,19.26
2023-06-07T06:04:05.300Z,19.32
2023-06-07T06:06:32.109Z,19.39
2023-06-07T06:09:00.824Z,19.47
2023-06-07T06:11:27.884Z,19.52
2023-06-07T06:13:54.920Z,19.56
2023-06-07T06:16:22.014Z,19.62
2023-06-07T06:18:49.052Z,19.67
2023-06-07T06:21:16.121Z,19.71
2023-06-07T06:23:43.096Z,19.79
2023-06-07T06:26:09.974Z,19.80
2023-06-07T06:28:36.830Z,19.75
2023-06-07T06:31:05.192Z,19.69
2023-06-07T06:33:32.241Z,19.68
2023-06-07T06:36:00.742Z,19.66
2023-06-07T06:38:27.929Z,19.68
2023-06-07T06:40:55.067Z,19.68
2023-06-07T06:43:22.461Z,19.69
2023-06-07T06:45:54.642Z,19.70
2023-06-07T06:48:21.540Z,19.74
2023-06-07T06:50:50.516Z,19.74
2023-06-07T06:53:17.378Z,19.75
2023-06-07T06:55:44.275Z,19.77
2023-06-07T06:58:11.187Z,19.79
2023-06-07T07:00:40.787Z,19.82
2023-06-07T07:03:08.233Z,19.87
2023-06-07T07:05:35.184Z,19.93
2023-06-07T07:08:03.868Z,19.98
2023-06-07T07:10:30.726Z,20.03
2023-06-07T07:12:57.558Z,20.06
2023-06-07T07:15:32.636Z,20.09
2023-06-07T07:17:59.650Z,20.17
2023-06-07T07:20:26.669Z,20.24
2023-06-07T07:22:53.828Z,20.28
2023-06-07T07:25:20.848Z,20.30
2023-06-07T07:27:47.748Z,20.38
2023-06-07T07:30:15.142Z,20.46
2023-06-07T07:32:42.022Z,20.56
2023-06-07T07:35:09.073Z,20.65
2023-06-07T07:37:36.418Z,20.76
2023-06-07T07:40:05.993Z,20.85
2023-06-07T07:42:32.966Z,20.95
2023-06-07T07:44:59.868Z,21.07
2023-06-07T07:47:26.928Z,21.17
2023-06-07T07:49:53.769Z,21.31
2023-06-07T07:52:22.477Z,21.48
2023-06-07T07:54:49.642Z,21.64
2023-06-07T07:57:16.768Z,21.68
2023-06-07T07:59:44.624Z,21.72
2023-06-07T08:02:11.756Z,21.80
2023-06-07T08:04:38.711Z,21.92
2023-06-07T08:07:05.830Z,22.03
2023-06-07T08:09:32.713Z,22.01
2023-06-07T08:11:59.474Z,21.93
2023-06-07T08:14:26.383Z,22.01
2023-06-07T08:16:53.231Z,22.17
2023-06-07T08:19:20.299Z,22.32
2023-06-07T08:21:48.686Z,22.46
2023-06-07T08:24:15.830Z,22.68
2023-06-07T08:26:46.118Z,22.81
2023-06-07T08:29:13.038Z,22.89
2023-06-07T08:31:44.968Z,22.95
2023-06-07T08:34:11.930Z,22.99
2023-06-07T08:36:39.567Z,22.88
2023-06-07T08:39:06.624Z,22.68
2023-06-07T08:41:33.515Z,22.43
2023-06-07T08:44:00.427Z,22.28
2023-06-07T08:46:31.986Z,22.23
2023-06-07T08:48:59.704Z,22.27
2023-06-07T08:51:27.262Z,22.22
2023-06-07T08:53:59.310Z,22.10
2023-06-07T08:56:26.502Z,22.03
2023-06-07T08:58:57.095Z,22.02
2023-06-07T09:01:24.998Z,22.12
2023-06-07T09:03:53.186Z,22.34
2023-06-07T09:06:21.220Z,22.66
2023-06-07T09:08:48.628Z,22.90
2023-06-07T09:11:16.402Z,23.14
2023-06-07T09:13:45.042Z,23.25
2023-06-07T09:16:14.540Z,23.15
2023-06-07T09:18:43.053Z,23.00
2023-06-07T09:21:21.456Z,22.88
2023-06-07T09:23:48.588Z,22.84
2023-06-07T09:26:16.428Z,22.94
2023-06-07T09:28:43.713Z,22.98
2023-06-07T09:31:10.695Z,22.82
2023-06-07T09:33:37.633Z,22.59
2023-06-07T09:36:09.408Z,22.39
2023-06-07T09:38:36.655Z,22.21
2023-06-07T09:41:05.330Z,22.19
2023-06-07T09:43:48.595Z,22.24
2023-06-07T09:46:16.311Z,22.34
2023-06-07T09:48:47.159Z,22.34
2023-06-07T09:51:14.169Z,22.29
2023-06-07T09:54:02.443Z,22.25
2023-06-07T09:56:29.481Z,22.22
2023-06-07T09:59:10.017Z,22.15
2023-06-07T10:01:39.377Z,22.17
2023-06-07T10:04:07.387Z,22.35
2023-06-07T10:06:39.842Z,22.63
2023-06-07T10:09:07.114Z,22.99
2023-06-07T10:11:34.480Z,23.18
2023-06-07T10:14:21.862Z,23.26
2023-06-07T10:16:52.852Z,23.36
2023-06-07T10:19:31.991Z,23.40
2023-06-07T10:21:59.501Z,23.54
2023-06-07T10:24:31.326Z,23.62
2023-06-07T10:27:06.363Z,23.72
2023-06-07T10:29:43.258Z,23.79
2023-06-07T10:32:12.116Z,23.84
2023-06-07T10:34:40.055Z,23.89
2023-06-07T10:37:08.643Z,23.98
2023-06-07T10:39:36.546Z,23.92
2023-06-07T10:42:03.693Z,23.73
2023-06-07T10:44:31.359Z,23.57
2023-06-07T10:47:17.166Z,23.53
2023-06-07T10:49:44.622Z,23.64
2023-06-07T10:52:15.880Z,23.79
2023-06-07T10:54:43.545Z,23.84
2023-06-07T10:57:10.917Z,23.84
2023-06-07T10:59:41.324Z,23.76
2023-06-07T11:02:24.972Z,23.78
2023-06-07T11:04:53.749Z,23.96
2023-06-07T11:07:22.254Z,24.09
2023-06-07T11:10:09.423Z,24.24
2023-06-07T11:12:36.963Z,24.26
2023-06-07T11:15:19.886Z,24.24
2023-06-07T11:17:54.640Z,24.32
2023-06-07T11:20:37.136Z,24.45
2023-06-07T11:23:23.748Z,24.52
2023-06-07T11:25:53.181Z,24.48
2023-06-07T11:28:23.627Z,24.35
2023-06-07T11:30:51.855Z,24.23
2023-06-07T11:33:19.608Z,24.12
2023-06-07T11:35:47.065Z,24.05
2023-06-07T11:38:13.934Z,24.22
2023-06-07T11:40:40.940Z,24.56
2023-06-07T11:43:09.889Z,24.89
2023-06-07T11:45:37.278Z,25.33
2023-06-07T11:48:04.345Z,25.84
2023-06-07T11:50:31.741Z,25.97
2023-06-07T11:52:58.574Z,25.83
2023-06-07T11:55:25.776Z,25.87
2023-06-07T11:57:55.347Z,26.17
2023-06-07T12:00:22.834Z,26.89
2023-06-07T12:02:54.270Z,27.46
2023-06-07T12:05:31.287Z,27.86
2023-06-07T12:08:00.981Z,28.06
2023-06-07T12:10:28.692Z,28.22
2023-06-07T12:13:07.470Z,28.34
2023-06-07T12:15:35.616Z,28.40
2023-06-07T12:18:03.892Z,28.54
2023-06-07T12:20:30.935Z,28.99
2023-06-07T12:23:07.022Z,28.83
2023-06-07T12:25:35.981Z,28.58
2023-06-07T12:28:07.496Z,28.53
2023-06-07T12:30:35.210Z,28.15
2023-06-07T12:33:05.188Z,27.48
2023-06-07T12:35:46.336Z,26.94
2023-06-07T12:38:14.052Z,26.97
2023-06-07T12:40:41.127Z,27.29
2023-06-07T12:43:08.005Z,27.43
2023-06-07T12:45:35.892Z,27.08
2023-06-07T12:48:02.726Z,26.67
2023-06-07T12:50:30.682Z,26.45
2023-06-07T12:52:57.900Z,26.83
2023-06-07T12:55:25.003Z,27.79
2023-06-07T12:57:51.938Z,28.60
2023-06-07T13:00:18.949Z,28.74
2023-06-07T13:02:46.091Z,28.98
2023-06-07T13:05:13.226Z,29.49
2023-06-07T13:07:41.137Z,29.96
2023-06-07T13:10:12.013Z,30.55
2023-06-07T13:12:40.040Z,31.05
2023-06-07T13:15:07.321Z,31.16
2023-06-07T13:17:34.642Z,31.50
2023-06-07T13:20:01.615Z,32.12
2023-06-07T13:22:32.593Z,32.76
2023-06-07T13:24:59.674Z,33.00
2023-06-07T13:27:28.427Z,32.90
2023-06-07T13:29:56.704Z,32.00
2023-06-07T13:32:23.786Z,31.10
2023-06-07T13:34:50.711Z,30.59
2023-06-07T13:37:17.694Z,30.34
2023-06-07T13:39:44.494Z,29.78
2023-06-07T13:42:11.409Z,29.28
2023-06-07T13:44:39.973Z,29.22
2023-06-07T13:47:07.338Z,29.63
2023-06-07T13:49:36.045Z,30.15
2023-06-07T13:52:03.532Z,30.61
2023-06-07T13:54:33.158Z,30.85
2023-06-07T13:57:00.753Z,31.34
2023-06-07T13:59:29.193Z,31.96
2023-06-07T14:01:59.733Z,31.90
2023-06-07T14:04:26.989Z,31.79
2023-06-07T14:06:54.178Z,31.54
2023-06-07T14:09:21.006Z,31.08
2023-06-07T14:11:47.851Z,31.02
2023-06-07T14:14:14.673Z,31.11
2023-06-07T14:16:41.501Z,31.29
2023-06-07T14:19:08.410Z,31.45
2023-06-07T14:21:35.824Z,31.37
2023-06-07T14:24:02.904Z,31.30
2023-06-07T14:26:29.764Z,31.47
2023-06-07T14:28:56.574Z,31.25
2023-06-07T14:31:23.779Z,30.78
2023-06-07T14:33:53.655Z,30.19
2023-06-07T14:36:21.280Z,30.18
2023-06-07T14:38:48.141Z,30.28
2023-06-07T14:41:14.965Z,30.17
2023-06-07T14:43:42.030Z,30.20
2023-06-07T14:46:09.117Z,30.08
2023-06-07T14:48:36.316Z,29.94
2023-06-07T14:51:03.183Z,29.70
2023-06-07T14:53:29.976Z,29.13
2023-06-07T14:55:56.896Z,28.32
2023-06-07T14:58:23.625Z,27.54
2023-06-07T15:00:50.924Z,26.83
2023-06-07T15:03:17.892Z,26.20
2023-06-07T15:05:44.947Z,25.74
2023-06-07T15:08:11.707Z,25.40
2023-06-07T15:10:38.567Z,25.18
2023-06-07T15:13:05.481Z,24.95
2023-06-07T15:15:32.546Z,24.73
2023-06-07T15:17:59.553Z,24.47
2023-06-07T15:20:27.769Z,24.23
2023-06-07T15:22:54.605Z,24.04
2023-06-07T15:25:21.474Z,23.86
2023-06-07T15:27:48.327Z,23.70
2023-06-07T15:30:15.646Z,23.55
2023-06-07T15:32:42.426Z,23.41
2023-06-07T15:35:12.537Z,23.26
2023-06-07T15:37:39.900Z,23.15
2023-06-07T15:40:07.471Z,23.03
2023-06-07T15:42:34.474Z,22.94
2023-06-07T15:45:01.257Z,22.84
2023-06-07T15:47:28.998Z,22.76
2023-06-07T15:49:56.226Z,22.71
2023-06-07T15:52:23.281Z,22.62
2023-06-07T15:54:50.324Z,22.44
2023-06-07T15:57:17.173Z,22.24
2023-06-07T15:59:43.930Z,22.09
2023-06-07T16:02:10.783Z,21.95
2023-06-07T16:04:37.685Z,21.82
2023-06-07T16:07:05.318Z,21.70
2023-06-07T16:09:32.272Z,21.49
2023-06-07T16:11:59.130Z,21.25
2023-06-07T16:14:26.123Z,21.00
2023-06-07T16:16:53.498Z,20.82
2023-06-07T16:19:20.358Z,20.59
2023-06-07T16:21:47.179Z,20.36
2023-06-07T16:24:15.274Z,19.84
2023-06-07T16:26:42.314Z,19.25
2023-06-07T16:29:09.119Z,18.79
2023-06-07T16:31:36.181Z,18.48
2023-06-07T16:34:03.099Z,18.33
2023-06-07T16:36:30.074Z,18.31
2023-06-07T16:38:56.867Z,18.32
2023-06-07T16:41:29.655Z,18.32
2023-06-07T16:43:56.391Z,18.30
2023-06-07T16:46:23.684Z,18.28
2023-06-07T16:48:50.530Z,18.25
2023-06-07T16:51:17.371Z,18.22
2023-06-07T16:53:44.302Z,18.16
2023-06-07T16:56:11.176Z,17.86
2023-06-07T16:58:38.118Z,17.49
2023-06-07T17:01:05.106Z,17.09
2023-06-07T17:03:32.101Z,16.71
2023-06-07T17:05:58.996Z,16.48
2023-06-07T17:08:26.150Z,16.50
2023-06-07T17:10:52.972Z,16.53
2023-06-07T17:13:20.235Z,16.51
2023-06-07T17:15:47.224Z,16.44
2023-06-07T17:18:14.291Z,16.39
2023-06-07T17:20:41.681Z,16.35
2023-06-07T17:23:08.558Z,16.35
2023-06-07T17:25:35.881Z,16.37
2023-06-07T17:28:03.040Z,16.40
2023-06-07T17:30:30.490Z,16.56
2023-06-07T17:32:57.457Z,16.73
2023-06-07T17:35:24.533Z,16.88
2023-06-07T17:37:53.541Z,17.02
2023-06-07T17:40:20.448Z,17.15
2023-06-07T17:42:47.224Z,17.15
2023-06-07T17:45:14.110Z,17.07
2023-06-07T17:47:54.184Z,16.96
2023-06-07T17:50:32.764Z,16.85
2023-06-07T17:53:00.190Z,16.77
2023-06-07T17:55:27.195Z,16.71
2023-06-07T17:57:54.083Z,16.69
2023-06-07T18:00:21.258Z,16.66
2023-06-07T18:02:48.070Z,16.63
2023-06-07T18:05:15.034Z,16.61
2023-06-07T18:07:42.411Z,16.58
2023-06-07T18:10:09.591Z,16.55
2023-06-07T18:12:36.489Z,16.49
2023-06-07T18:15:06.306Z,16.43
2023-06-07T18:17:33.099Z,16.37
2023-06-07T18:19:59.887Z,16.33
2023-06-07T18:22:26.767Z,16.30
2023-06-07T18:24:53.617Z,16.28
2023-06-07T18:27:20.552Z,16.26
2023-06-07T18:29:47.382Z,16.26
2023-06-07T18:32:14.232Z,16.26
2023-06-07T18:34:41.112Z,16.27
2023-06-07T18:37:08.025Z,16.29
2023-06-07T18:39:34.997Z,16.30
2023-06-07T18:42:01.869Z,16.33
2023-06-07T18:44:30.246Z,16.36
2023-06-07T18:46:57.263Z,16.39
2023-06-07T18:49:24.116Z,16.47
2023-06-07T18:51:51.013Z,16.52
2023-06-07T18:54:17.796Z,16.59
2023-06-07T18:56:44.960Z,16.61
2023-06-07T18:59:11.935Z,16.64
2023-06-07T19:01:50.667Z,16.64
2023-06-07T19:04:19.418Z,16.65
2023-06-07T19:06:49.578Z,16.65
2023-06-07T19:09:18.603Z,16.64
2023-06-07T19:11:46.198Z,16.62
2023-06-07T19:14:13.231Z,16.62
2023-06-07T19:16:40.596Z,16.62
2023-06-07T19:19:07.447Z,16.65
2023-06-07T19:21:34.246Z,16.67
2023-06-07T19:24:04.190Z,16.70
2023-06-07T19:26:31.356Z,16.73
2023-06-07T19:29:02.508Z,16.75
2023-06-07T19:31:29.478Z,16.69
2023-06-07T19:33:56.452Z,16.61
2023-06-07T19:36:23.237Z,16.51
2023-06-07T19:38:54.164Z,16.40
2023-06-07T19:41:22.066Z,16.33
2023-06-07T19:43:48.871Z,16.28
2023-06-07T19:46:15.788Z,16.22
2023-06-07T19:48:42.644Z,16.17
2023-06-07T19:51:10.169Z,16.11
2023-06-07T19:53:37.119Z,16.07
2023-06-07T19:56:04.743Z,16.03
2023-06-07T19:58:31.802Z,16.00
2023-06-07T20:00:58.732Z,15.97
2023-06-07T20:03:25.566Z,15.96
2023-06-07T20:05:52.403Z,15.96
2023-06-07T20:08:19.199Z,15.99
2023-06-07T20:10:46.023Z,16.00
2023-06-07T20:13:17.880Z,16.04
2023-06-07T20:15:45.522Z,16.09
2023-06-07T20:18:12.402Z,16.13
2023-06-07T20:20:40.833Z,16.18
2023-06-07T20:23:07.914Z,16.23
2023-06-07T20:25:34.968Z,16.27
2023-06-07T20:28:01.956Z,16.30
2023-06-07T20:30:28.842Z,16.34
2023-06-07T20:32:55.730Z,16.33
2023-06-07T20:35:22.842Z,16.33
2023-06-07T20:37:50.478Z,16.32
2023-06-07T20:40:17.398Z,16.27
2023-06-07T20:42:45.205Z,16.23
2023-06-07T20:45:13.652Z,16.18
2023-06-07T20:47:40.897Z,16.13
2023-06-07T20:50:09.585Z,16.08
2023-06-07T20:52:36.563Z,16.04
2023-06-07T20:55:03.936Z,15.99
2023-06-07T20:57:34.221Z,15.92
2023-06-07T21:00:05.394Z,15.86
2023-06-07T21:02:36.560Z,15.78
2023-06-07T21:05:03.629Z,15.74
2023-06-07T21:07:30.881Z,15.71
2023-06-07T21:09:57.720Z,15.69
2023-06-07T21:12:24.640Z,15.66
2023-06-07T21:14:53.523Z,15.64
2023-06-07T21:17:20.306Z,15.63
2023-06-07T21:19:48.562Z,15.60
2023-06-07T21:22:15.286Z,15.57
2023-06-07T21:24:42.193Z,15.54
2023-06-07T21:27:11.110Z,15.51
2023-06-07T21:29:38.112Z,15.50
2023-06-07T21:32:05.333Z,15.48
2023-06-07T21:34:32.079Z,15.50
2023-06-07T21:36:58.886Z,15.50
2023-06-07T21:39:25.739Z,15.48
2023-06-07T21:41:52.818Z,15.46
2023-06-07T21:44:19.781Z,15.42
2023-06-07T21:46:46.766Z,15.40
2023-06-07T21:49:13.773Z,15.37
2023-06-07T21:51:40.856Z,15.35
2023-06-07T21:54:09.155Z,15.33
2023-06-07T21:56:36.150Z,15.32
2023-06-07T21:59:02.912Z,15.29
2023-06-07T22:01:29.845Z,15.26
2023-06-07T22:03:56.853Z,15.23
2023-06-07T22:06:23.657Z,15.19
2023-06-07T22:08:50.869Z,15.17
2023-06-07T22:11:18.054Z,15.13
2023-06-07T22:13:45.922Z,15.09
2023-06-07T22:16:13.859Z,15.05
2023-06-07T22:18:41.943Z,15.01
2023-06-07T22:21:08.880Z,14.96
2023-06-07T22:23:35.844Z,14.91
2023-06-07T22:26:02.971Z,14.87
2023-06-07T22:28:31.010Z,14.84
2023-06-07T22:31:01.037Z,14.80
2023-06-07T22:33:27.907Z,14.78
2023-06-07T22:35:58.680Z,14.75
2023-06-07T22:38:25.895Z,14.72
2023-06-07T22:40:53.402Z,14.69
2023-06-07T22:43:20.274Z,14.65
2023-06-07T22:45:47.400Z,14.61
2023-06-07T22:48:16.948Z,14.56
2023-06-07T22:50:43.829Z,14.55
2023-06-07T22:53:13.531Z,14.53
2023-06-07T22:55:41.813Z,14.50
2023-06-07T22:58:08.830Z,14.48
2023-06-07T23:00:36.354Z,14.48
2023-06-07T23:03:05.027Z,14.46
2023-06-07T23:05:32.039Z,14.44
2023-06-07T23:07:58.897Z,14.43
2023-06-07T23:10:37.237Z,14.42
2023-06-07T23:13:18.446Z,14.39
2023-06-07T23:15:46.395Z,14.38
2023-06-07T23:18:19.543Z,14.36
2023-06-07T23:20:46.890Z,14.34
2023-06-07T23:23:14.009Z,14.30
2023-06-07T23:25:41.267Z,14.27
2023-06-07T23:28:08.263Z,14.24
2023-06-07T23:30:35.683Z,14.23
2023-06-07T23:33:03.242Z,14.19
2023-06-07T23:35:30.106Z,14.16
2023-06-07T23:37:57.034Z,14.13
2023-06-07T23:40:23.890Z,14.10
2023-06-07T23:42:53.619Z,14.07
2023-06-07T23:45:25.638Z,14.05
2023-06-07T23:47:52.574Z,14.02
2023-06-07T23:50:19.417Z,13.97
2023-06-07T23:52:46.355Z,13.94
2023-06-07T23:55:14.506Z,13.91
2023-06-07T23:57:41.845Z,13.88
